M I D A S
Marine Information and Data Acquisition System
Tripno 746 of the Zeeleeuw from 2004-07-12 06:20:44 to 2004-07-12 15:40:41
Back to CruiseResearch ActivitiesStationsMapUnderway DataData graphs

EquipmentUnitsComment
TimeDGPSUTC
LatitudeDGPSDM.mWGS84
LongitudeDGPSDM.mWGS84
TemperatureSBE03/SBE38deg celciusITS90
ConductivitySBE21S/mITS90
SalinitySBE21 Practical Salinity Units
ChlorophylAChelsea fluorimeterg/lCalibrated in Aceton
Missing or incorrect values are displayed as -999
Sea surface data collected by the RV Zeeleeuw from 2004-07-12 06:20:44 to 2004-07-12 15:40:41
Time Latitude Longitude Temperature Conductivity Salinity ChlorophylA
2004-07-12 06:21:47 51°13.601 2°56.069 19.510202 0.058595 0.322198 -0.74754
2004-07-12 06:22:47 51°13.626 2°55.985 19.52491 0.058595 0.322219 -0.74754
2004-07-12 06:23:48 51°13.663 2°55.877 19.528902 0.058699 0.322823 -0.74754
2004-07-12 06:24:47 51°13.69 2°55.779 19.534646 0.058595 0.322245 -0.74754
2004-07-12 06:25:47 51°13.701 2°55.747 19.584609 0.058595 0.322266 -0.74754
2004-07-12 06:26:47 51°13.694 2°55.746 19.558716 0.058595 0.322261 -0.74754
2004-07-12 06:27:47 51°13.738 2°55.726 19.554033 0.058595 0.322292 -0.781249
2004-07-12 06:28:49 51°13.83 2°55.633 19.539045 0.058595 0.322292 -0.781249
2004-07-12 06:29:48 51°13.942 2°55.547 19.53322 0.058595 0.322318 -0.74754
2004-07-12 06:30:48 51°14.066 2°55.462 19.558512 0.058595 0.322329 -0.74754
2004-07-12 06:31:48 51°14.202 2°55.342 19.567714 0.058595 0.322355 -0.74754
2004-07-12 06:32:48 51°14.331 2°55.124 19.528088 0.058595 0.322365 -0.781249
2004-07-12 06:33:46 51°14.489 2°54.935 19.555702 0.058595 0.322397 -0.71383
2004-07-12 06:34:49 51°14.681 2°54.738 19.548209 0.058595 0.322433 -0.71383
2004-07-12 06:35:49 51°14.865 2°54.552 19.554033 0.058595 0.322454 -0.74754
2004-07-12 06:36:47 51°15.041 2°54.371 19.571582 0.058595 0.322491 -0.71383
2004-07-12 06:37:48 51°15.229 2°54.182 17.534317 1.080168 6.929358 -0.275608
2004-07-12 06:38:48 51°15.412 2°53.994 17.304498 4.33432 33.155404 1.5447
2004-07-12 06:39:47 51°15.593 2°53.816 17.254595 4.358262 33.470963 1.140187
2004-07-12 06:40:54 51°15.805 2°53.626 17.254469 4.353411 33.447411 1.140187
2004-07-12 06:41:57 51°16.008 2°53.457 17.241461 4.351407 33.445295 1.173896
2004-07-12 06:42:56 51°16.199 2°53.305 17.201202 4.340334 33.365813 1.039059
2004-07-12 06:43:57 51°16.397 2°53.149 17.12833 4.380729 33.765174 0.634546
2004-07-12 06:44:58 51°16.593 2°53.003 17.142919 4.394968 33.918084 0.39858
2004-07-12 06:45:58 51°16.786 2°52.868 17.151519 4.372608 33.718986 0.465999
2004-07-12 06:46:58 51°16.981 2°52.733 17.157125 4.36417 33.640732 0.533418
2004-07-12 06:47:58 51°17.181 2°52.604 17.155313 4.34139 33.445631 0.634546
2004-07-12 06:48:58 51°17.386 2°52.501 17.149959 4.328945 33.339665 0.735674
2004-07-12 06:49:57 51°17.599 2°52.458 17.153078 4.318926 33.25643 0.769383
2004-07-12 06:50:57 51°17.817 2°52.498 17.182538 4.331476 33.349977 0.769383
2004-07-12 06:51:57 51°18.033 2°52.605 17.195388 4.350565 33.504645 1.005349
2004-07-12 06:52:58 51°18.236 2°52.776 17.214722 4.364592 33.608434 1.039059
2004-07-12 06:53:58 51°18.415 2°53.001 17.228493 4.367017 33.612899 0.97164
2004-07-12 06:54:57 51°18.577 2°53.254 17.234598 4.364908 33.586235 0.836802
2004-07-12 06:55:56 51°18.738 2°53.511 17.238388 4.353833 33.483084 0.701965
2004-07-12 06:56:58 51°18.895 2°53.797 17.243692 4.343603 33.39452 0.735674
2004-07-12 06:57:56 51°19.038 2°54.067 17.246555 4.308378 33.090727 0.735674
2004-07-12 06:58:59 51°19.167 2°54.394 17.249207 4.333373 33.296966 0.803093
2004-07-12 06:59:59 51°19.287 2°54.711 17.254805 4.321772 33.196132 0.803093
2004-07-12 07:01:00 51°19.41 2°55.029 17.260109 4.333162 33.287936 0.769383
2004-07-12 07:01:59 51°19.526 2°55.342 17.259099 4.330314 33.258675 0.904221
2004-07-12 07:02:59 51°19.645 2°55.663 17.257583 4.325568 33.22033 0.870512
2004-07-12 07:03:59 51°19.759 2°55.982 17.261161 4.315233 33.133412 0.870512
2004-07-12 07:04:59 51°19.869 2°56.312 17.260067 4.316393 33.137383 0.904221
2004-07-12 07:05:59 51°19.98 2°56.638 17.258551 4.316499 33.138288 0.904221
2004-07-12 07:06:58 51°20.091 2°56.963 17.25611 4.264929 32.701521 0.904221
2004-07-12 07:07:59 51°20.206 2°57.297 17.251775 4.15368 31.751273 0.836802
2004-07-12 07:08:58 51°20.317 2°57.619 17.192523 4.229391 32.411382 0.836802
2004-07-12 07:09:58 51°20.429 2°57.947 17.19345 4.214945 32.319319 0.870512
2004-07-12 07:10:59 51°20.542 2°58.279 17.20832 4.122786 31.528357 0.769383
2004-07-12 07:11:59 51°20.656 2°58.606 17.210089 4.205138 32.224308 0.735674
2004-07-12 07:12:59 51°20.764 2°58.938 17.220408 4.198916 32.169348 0.803093
2004-07-12 07:14:00 51°20.878 2°59.271 17.21885 4.207247 32.231864 0.803093
2004-07-12 07:14:59 51°20.99 2°59.592 17.233167 4.194171 32.117741 0.904221
2004-07-12 07:16:00 51°21.102 2°59.931 17.248533 4.194909 32.112448 0.93793
2004-07-12 07:16:59 51°21.213 3°0.257 17.260067 4.184786 32.014407 0.97164
2004-07-12 07:18:00 51°21.329 3°0.599 17.26457 4.195858 32.10027 0.97164
2004-07-12 07:18:59 51°21.438 3°0.929 17.273113 4.185313 32.00851 1.039059
2004-07-12 07:19:59 51°21.548 3°1.265 17.280645 4.254278 32.593832 1.072768
2004-07-12 07:20:58 51°21.666 3°1.584 17.279972 4.25491 32.589249 1.140187
2004-07-12 07:21:59 51°21.838 3°1.844 17.269157 4.248372 32.540954 1.106477
2004-07-12 07:22:58 51°22.02 3°2.067 17.283085 4.244787 32.512043 1.207606
2004-07-12 07:23:58 51°22.203 3°2.297 17.294613 4.250903 32.554382 1.275024
2004-07-12 07:24:58 51°22.384 3°2.526 17.299745 4.262398 32.645067 1.342443
2004-07-12 07:25:58 51°22.565 3°2.758 17.305381 4.267987 32.689941 1.578409
2004-07-12 07:26:59 51°22.747 3°2.998 17.304708 4.269568 32.697579 1.5447
2004-07-12 07:27:59 51°22.927 3°3.234 17.310176 4.270623 32.705422 1.443571
2004-07-12 07:28:58 51°23.106 3°3.473 17.311648 4.272416 32.725481 1.308734
2004-07-12 07:29:58 51°23.284 3°3.715 17.311227 4.272838 32.72319 1.106477
2004-07-12 07:30:59 51°23.466 3°3.963 17.306349 4.272205 32.717186 1.072768
2004-07-12 07:31:59 51°23.646 3°4.203 17.304077 4.273681 32.733358 1.005349
2004-07-12 07:32:58 51°23.823 3°4.439 17.284979 4.276318 32.758872 0.93793
2004-07-12 07:33:58 51°24.013 3°4.652 17.280771 4.278533 32.790244 0.701965
2004-07-12 07:35:05 51°24.23 3°4.862 17.276016 4.287813 32.870314 0.600836
2004-07-12 07:36:05 51°24.426 3°5.048 17.272313 4.312702 33.087188 0.533418
2004-07-12 07:37:05 51°24.625 3°5.227 17.272566 4.325146 33.199319 0.533418
2004-07-12 07:38:04 51°24.823 3°5.39 17.266843 4.33158 33.257528 0.499708
2004-07-12 07:39:04 51°25.024 3°5.554 17.25531 4.335482 33.298841 0.499708
2004-07-12 07:40:05 51°25.228 3°5.721 17.254006 4.338541 33.334737 0.533418
2004-07-12 07:41:05 51°25.423 3°5.896 17.27286 4.340755 33.341115 0.499708
2004-07-12 07:42:05 51°25.603 3°6.112 17.28115 4.345606 33.371331 0.600836
2004-07-12 07:43:05 51°25.734 3°6.42 17.278667 4.348032 33.389146 0.634546
2004-07-12 07:44:05 51°25.856 3°6.744 17.266506 4.348665 33.400609 0.803093
2004-07-12 07:45:04 51°25.971 3°7.066 17.247271 4.346978 33.397574 0.93793
2004-07-12 07:46:05 51°26.09 3°7.4 17.234598 4.349404 33.429885 1.005349
2004-07-12 07:47:05 51°26.207 3°7.729 17.226893 4.348455 33.431997 1.039059
2004-07-12 07:48:04 51°26.325 3°8.052 17.222555 4.350775 33.457388 1.072768
2004-07-12 07:49:05 51°26.406 3°8.261 17.21965 4.354677 33.493368 1.005349
2004-07-12 07:50:04 51°26.436 3°8.35 17.229504 4.354255 33.488529 0.93793
2004-07-12 07:51:05 51°26.428 3°8.387 17.226767 4.353517 33.476127 0.769383
2004-07-12 07:52:04 51°26.42 3°8.421 17.225503 4.353517 33.480363 0.769383
2004-07-12 07:53:05 51°26.413 3°8.46 17.226767 4.35647 33.50879 0.735674
2004-07-12 07:54:05 51°26.406 3°8.5 17.243776 4.357208 33.50363 0.836802
2004-07-12 07:55:05 51°26.413 3°8.559 17.254511 4.358368 33.505734 0.735674
2004-07-12 07:56:05 51°26.444 3°8.641 17.234683 4.35763 33.50423 0.769383
2004-07-12 07:57:05 51°26.475 3°8.726 17.235651 4.356681 33.502124 0.803093
2004-07-12 07:58:05 51°26.498 3°8.823 17.237209 4.356681 33.49728 0.735674
2004-07-12 07:59:04 51°26.516 3°8.924 17.231398 4.357208 33.505447 0.769383
2004-07-12 08:00:05 51°26.531 3°9.014 17.231314 4.355943 33.495775 0.668255
2004-07-12 08:01:04 51°26.547 3°9.084 17.22584 4.355943 33.498803 0.803093
2004-07-12 08:02:05 51°26.563 3°9.152 17.21965 4.354783 33.49367 0.769383
2004-07-12 08:03:05 51°26.581 3°9.215 17.217797 4.354044 33.491559 0.735674
2004-07-12 08:04:05 51°26.601 3°9.277 17.217797 4.352357 33.477044 0.769383
2004-07-12 08:05:05 51°26.625 3°9.341 17.215986 4.353517 33.488234 0.769383
2004-07-12 08:06:05 51°26.647 3°9.407 17.217586 4.352357 33.476439 0.735674
2004-07-12 08:07:04 51°26.67 3°9.47 17.214807 4.352462 33.478557 0.803093
2004-07-12 08:08:05 51°26.697 3°9.534 17.214722 4.352041 33.476139 0.735674
2004-07-12 08:09:05 51°26.723 3°9.595 17.217123 4.352884 33.48158 0.769383
2004-07-12 08:10:05 51°26.751 3°9.658 17.218386 4.350986 33.465252 0.735674
2004-07-12 08:11:05 51°26.776 3°9.722 17.218176 4.350986 33.467068 0.735674
2004-07-12 08:12:05 51°26.799 3°9.787 17.215186 4.351091 33.467369 0.701965
2004-07-12 08:13:05 51°26.825 3°9.853 17.214301 4.351091 33.467975 0.803093
2004-07-12 08:14:05 51°26.849 3°9.919 17.21388 4.350986 33.467673 0.701965
2004-07-12 08:15:05 51°26.876 3°9.982 17.211985 4.348982 33.452253 0.803093
2004-07-12 08:16:05 51°26.901 3°10.045 17.21308 4.349826 33.45951 0.803093
2004-07-12 08:17:05 51°26.93 3°10.111 17.211985 4.349931 33.461022 0.769383
2004-07-12 08:18:05 51°26.959 3°10.176 17.21308 4.349615 33.457695 0.769383
2004-07-12 08:19:04 51°26.984 3°10.243 17.21527 4.349615 33.45588 0.769383
2004-07-12 08:20:05 51°27.011 3°10.312 17.215565 4.348982 33.451648 0.735674
2004-07-12 08:21:04 51°27.036 3°10.376 17.214722 4.348982 33.449833 0.769383
2004-07-12 08:22:04 51°27.065 3°10.44 17.215944 4.348982 33.450438 0.769383
2004-07-12 08:23:05 51°27.094 3°10.506 17.218976 4.348033 33.439855 0.803093
2004-07-12 08:24:05 51°27.119 3°10.566 17.217586 4.34856 33.444995 0.769383
2004-07-12 08:25:04 51°27.146 3°10.628 17.219818 4.349404 33.450436 0.836802
2004-07-12 08:26:05 51°27.175 3°10.692 17.223187 4.349193 33.448018 0.870512
2004-07-12 08:27:05 51°27.203 3°10.755 17.227567 4.348138 33.43653 0.870512
2004-07-12 08:28:05 51°27.231 3°10.819 17.229461 4.349404 33.44318 0.803093
2004-07-12 08:29:05 51°27.259 3°10.885 17.229377 4.34856 33.43653 0.904221
2004-07-12 08:30:05 51°27.282 3°10.95 17.232872 4.348455 33.431997 0.870512
2004-07-12 08:31:05 51°27.307 3°11.026 17.23363 4.347927 33.428068 0.97164
2004-07-12 08:32:04 51°27.321 3°11.12 17.236998 4.348349 33.429278 0.904221
2004-07-12 08:33:05 51°27.316 3°11.234 17.236619 4.347189 33.418097 0.803093
2004-07-12 08:34:04 51°27.304 3°11.327 17.240324 4.347294 33.419004 0.904221
2004-07-12 08:35:04 51°27.297 3°11.404 17.249965 4.346767 33.40783 0.97164
2004-07-12 08:36:04 51°27.266 3°11.488 17.249838 4.346978 33.401797 0.870512
2004-07-12 08:37:05 51°27.21 3°11.483 17.246681 4.346134 33.394548 0.97164
2004-07-12 08:38:05 51°27.174 3°11.443 17.243187 4.345185 33.390615 0.97164
2004-07-12 08:39:04 51°27.151 3°11.393 17.238977 4.345185 33.393632 0.97164
2004-07-12 08:40:05 51°27.128 3°11.34 17.238767 4.346029 33.405107 1.005349
2004-07-12 08:41:09 51°27.104 3°11.282 17.234514 4.346662 33.410545 0.97164
2004-07-12 08:42:08 51°27.081 3°11.226 17.232956 4.346978 33.416284 0.97164
2004-07-12 08:43:08 51°27.06 3°11.163 17.229672 4.347505 33.422629 0.904221
2004-07-12 08:44:08 51°27.041 3°11.1 17.226303 4.3474 33.424139 0.97164
2004-07-12 08:45:08 51°27.023 3°11.033 17.222724 4.347716 33.430485 0.904221
2004-07-12 08:46:09 51°27.003 3°10.964 17.220281 4.348033 33.435019 0.904221
2004-07-12 08:47:09 51°26.984 3°10.899 17.219144 4.348138 33.437739 0.93793
2004-07-12 08:48:09 51°26.965 3°10.837 17.213922 4.348138 33.441367 0.870512
2004-07-12 08:49:08 51°26.945 3°10.776 17.212574 4.348349 33.444995 0.870512
2004-07-12 08:50:08 51°26.927 3°10.713 17.212701 4.348771 33.448624 0.836802
2004-07-12 08:51:09 51°26.907 3°10.65 17.209668 4.348877 33.45195 0.803093
2004-07-12 08:52:10 51°26.886 3°10.584 17.206383 4.348982 33.454673 0.870512
2004-07-12 08:53:09 51°26.867 3°10.519 17.206804 4.349193 33.456487 0.769383
2004-07-12 08:54:09 51°26.847 3°10.456 17.207057 4.34951 33.461024 0.836802
2004-07-12 08:55:09 51°26.829 3°10.388 17.208236 4.350037 33.463745 0.836802
2004-07-12 08:56:15 51°26.809 3°10.313 17.208699 4.350248 33.46677 0.803093
2004-07-12 08:57:15 51°26.79 3°10.249 17.210553 4.351302 33.472816 0.735674
2004-07-12 08:58:15 51°26.772 3°10.184 17.210384 4.351619 33.477354 0.870512
2004-07-12 08:59:16 51°26.752 3°10.118 17.210468 4.352568 33.484308 0.870512
2004-07-12 09:00:14 51°26.732 3°10.055 17.211521 4.353095 33.487633 0.836802
2004-07-12 09:01:16 51°26.712 3°9.989 17.213964 4.353623 33.491564 0.769383
2004-07-12 09:02:15 51°26.692 3°9.927 17.213164 4.353939 33.495497 0.735674
2004-07-12 09:03:16 51°26.671 3°9.863 17.21607 4.354677 33.497608 0.870512
2004-07-12 09:04:16 51°26.651 3°9.798 17.214048 4.355099 33.500631 0.803093
2004-07-12 09:05:15 51°26.635 3°9.73 17.21548 4.355415 33.502747 0.836802
2004-07-12 09:06:16 51°26.615 3°9.665 17.213332 4.355416 33.504564 0.904221
2004-07-12 09:07:15 51°26.595 3°9.602 17.210553 4.354888 33.501846 0.870512
2004-07-12 09:08:15 51°26.574 3°9.537 17.214596 4.355416 33.507594 0.836802
2004-07-12 09:09:16 51°26.553 3°9.473 17.208447 4.353939 33.49368 0.870512
2004-07-12 09:10:16 51°26.533 3°9.407 17.208025 4.354361 33.500945 0.93793
2004-07-12 09:11:16 51°26.513 3°9.344 17.205372 4.354045 33.50004 0.904221
2004-07-12 09:12:16 51°26.498 3°9.278 17.207731 4.35299 33.49036 0.93793
2004-07-12 09:13:16 51°26.491 3°9.209 17.206804 4.352568 33.486731 0.93793
2004-07-12 09:14:16 51°26.486 3°9.142 17.206972 4.351302 33.478265 0.904221
2004-07-12 09:15:15 51°26.482 3°9.084 17.208068 4.35067 33.471005 0.97164
2004-07-12 09:16:14 51°26.48 3°9.057 17.2095 4.35067 33.467978 1.005349
2004-07-12 09:17:16 51°26.475 3°9.055 17.210174 4.350142 33.462836 1.005349
2004-07-12 09:18:15 51°26.469 3°9.063 17.213669 4.349615 33.456485 0.97164
2004-07-12 09:19:16 51°26.465 3°9.071 17.213543 4.349404 33.454671 0.97164
2004-07-12 09:20:15 51°26.462 3°9.079 17.212701 4.349299 33.453159 0.93793
2004-07-12 09:21:15 51°26.459 3°9.089 17.212659 4.348877 33.449531 0.93793
2004-07-12 09:22:16 51°26.454 3°9.1 17.2119 4.348982 33.450438 0.97164
2004-07-12 09:23:16 51°26.446 3°9.1 17.214596 4.348244 33.442879 0.97164
2004-07-12 09:24:16 51°26.406 3°9.092 17.212995 4.348033 33.441669 0.93793
2004-07-12 09:25:16 51°26.343 3°9.213 17.220239 4.346873 33.432297 0.93793
2004-07-12 09:26:16 51°26.221 3°9.476 17.218471 4.346978 33.427763 1.039059
2004-07-12 09:27:16 51°26.121 3°9.796 17.217333 4.347084 33.428066 1.140187
2004-07-12 09:28:12 51°26.024 3°10.095 17.214596 4.346556 33.426554 1.140187
2004-07-12 09:29:12 51°25.917 3°10.414 17.209963 4.346662 33.430483 1.106477
2004-07-12 09:30:12 51°25.809 3°10.731 17.212574 4.346556 33.434413 1.140187
2004-07-12 09:31:14 51°25.697 3°11.061 17.199053 4.346346 33.436832 1.106477
2004-07-12 09:32:18 51°25.585 3°11.407 17.186625 4.345608 33.438951 1.106477
2004-07-12 09:33:18 51°25.491 3°11.745 17.181864 4.34392 33.429272 1.072768
2004-07-12 09:34:18 51°25.394 3°12.077 17.181484 4.343287 33.423827 1.072768
2004-07-12 09:35:18 51°25.306 3°12.412 17.181569 4.341811 33.412936 1.039059
2004-07-12 09:36:24 51°25.216 3°12.791 17.186204 4.340018 33.398114 1.039059
2004-07-12 09:37:24 51°25.164 3°13.15 17.193155 4.337909 33.373926 1.072768
2004-07-12 09:38:28 51°25.145 3°13.506 17.204951 4.335061 33.340384 1.039059
2004-07-12 09:39:26 51°25.184 3°13.634 17.232788 4.330737 33.297786 1.039059
2004-07-12 09:40:26 51°25.196 3°13.696 17.24424 4.328627 33.259206 0.93793
2004-07-12 09:41:28 51°25.216 3°13.771 17.245334 4.328522 33.252892 0.836802
2004-07-12 09:42:26 51°25.245 3°13.844 17.249754 4.3281 33.244464 0.904221
2004-07-12 09:43:27 51°25.276 3°13.914 17.259099 4.329049 33.246608 0.97164
2004-07-12 09:44:27 51°25.303 3°13.984 17.255858 4.327994 33.233952 0.93793
2004-07-12 09:45:28 51°25.324 3°14.062 17.24685 4.326307 33.224868 0.97164
2004-07-12 09:46:27 51°25.342 3°14.136 17.25994 4.324303 33.208866 0.97164
2004-07-12 09:47:28 51°25.36 3°14.216 17.254427 4.325357 33.211321 0.93793
2004-07-12 09:48:28 51°25.378 3°14.293 17.256447 4.324936 33.210099 0.93793
2004-07-12 09:49:27 51°25.394 3°14.368 17.256784 4.325779 33.215541 0.93793
2004-07-12 09:50:28 51°25.411 3°14.445 17.258046 4.324092 33.200458 0.904221
2004-07-12 09:51:26 51°25.425 3°14.519 17.263181 4.323986 33.195956 0.97164
2004-07-12 09:52:28 51°25.438 3°14.597 17.268316 4.323354 33.186931 1.039059
2004-07-12 09:53:27 51°25.45 3°14.669 17.268694 4.323037 33.182419 1.039059
2004-07-12 09:54:28 51°25.461 3°14.742 17.27387 4.322932 33.179118 1.072768
2004-07-12 09:55:28 51°25.468 3°14.811 17.275259 4.322193 33.169192 1.039059
2004-07-12 09:56:26 51°25.472 3°14.877 17.275175 4.322088 33.165893 1.039059
2004-07-12 09:57:28 51°25.47 3°14.952 17.274039 4.321877 33.162887 1.039059
2004-07-12 09:58:27 51°25.459 3°15.027 17.270588 4.320928 33.160132 1.039059
2004-07-12 09:59:28 51°25.447 3°15.105 17.27185 4.317448 33.133269 1.039059
2004-07-12 10:00:27 51°25.435 3°15.181 17.265875 4.317659 33.136873 1.039059
2004-07-12 10:01:28 51°25.423 3°15.261 17.269073 4.317553 33.135968 0.93793
2004-07-12 10:02:28 51°25.415 3°15.342 17.26962 4.31692 33.128148 0.93793
2004-07-12 10:03:26 51°25.408 3°15.42 17.267642 4.318186 33.1402 0.870512
2004-07-12 10:04:26 51°25.402 3°15.498 17.271093 4.317237 33.130264 0.904221
2004-07-12 10:05:26 51°25.395 3°15.576 17.269073 4.31808 33.139893 0.836802
2004-07-12 10:06:28 51°25.389 3°15.656 17.273407 4.31808 33.136902 0.904221
2004-07-12 10:07:28 51°25.383 3°15.738 17.276311 4.318397 33.137224 0.803093
2004-07-12 10:08:27 51°25.376 3°15.818 17.270293 4.317975 33.135998 0.769383
2004-07-12 10:09:27 51°25.366 3°15.9 17.271346 4.316498 33.123334 0.769383
2004-07-12 10:10:28 51°25.353 3°15.979 17.273828 4.316077 33.119118 0.701965
2004-07-12 10:11:26 51°25.344 3°16.057 17.266296 4.314284 33.105534 0.735674
2004-07-12 10:12:27 51°25.333 3°16.139 17.264023 4.310382 33.076248 0.769383
2004-07-12 10:13:28 51°25.318 3°16.22 17.257794 4.306902 33.049982 0.668255
2004-07-12 10:14:26 51°25.303 3°16.299 17.258846 4.303527 33.022233 0.668255
2004-07-12 10:15:28 51°25.285 3°16.381 17.258762 4.301418 33.003551 0.735674
2004-07-12 10:16:28 51°25.267 3°16.457 17.259014 4.300574 32.996912 0.701965
2004-07-12 10:17:28 51°25.251 3°16.531 17.254469 4.299625 32.989965 0.668255
2004-07-12 10:18:28 51°25.237 3°16.605 17.256026 4.299308 32.988444 0.668255
2004-07-12 10:19:26 51°25.224 3°16.677 17.257794 4.298887 32.982444 0.701965
2004-07-12 10:20:27 51°25.218 3°16.744 17.259898 4.29741 32.970381 0.701965
2004-07-12 10:21:27 51°25.212 3°16.809 17.259604 4.295617 32.952631 0.701965
2004-07-12 10:22:30 51°25.173 3°16.86 17.255479 4.294668 32.945684 0.668255
2004-07-12 10:23:30 51°25.133 3°16.83 17.257373 4.293403 32.93543 0.904221
2004-07-12 10:24:30 51°25.114 3°16.756 17.263602 4.289606 32.9017 0.93793
2004-07-12 10:25:30 51°25.106 3°16.669 17.262971 4.288446 32.88879 1.072768
2004-07-12 10:26:30 51°25.114 3°16.581 17.261834 4.289079 32.894806 1.039059
2004-07-12 10:27:30 51°25.133 3°16.502 17.250849 4.290344 32.910998 1.005349
2004-07-12 10:28:30 51°25.146 3°16.42 17.251227 4.291083 32.920892 0.97164
2004-07-12 10:29:30 51°25.148 3°16.336 17.253711 4.291821 32.924843 0.904221
2004-07-12 10:30:30 51°25.147 3°16.251 17.255437 4.292137 32.92696 0.904221
2004-07-12 10:31:30 51°25.148 3°16.17 17.252743 4.293192 32.934812 0.904221
2004-07-12 10:32:30 51°25.149 3°16.086 17.255058 4.293403 32.938999 0.904221
2004-07-12 10:33:29 51°25.151 3°16.001 17.255984 4.29277 32.930601 0.904221
2004-07-12 10:34:30 51°25.155 3°15.911 17.261413 4.292348 32.925796 0.97164
2004-07-12 10:35:30 51°25.159 3°15.83 17.263855 4.292453 32.923728 1.005349
2004-07-12 10:36:30 51°25.162 3°15.76 17.261919 4.292137 32.920422 1.005349
2004-07-12 10:37:29 51°25.167 3°15.696 17.26255 4.292348 32.92223 1.005349
2004-07-12 10:38:29 51°25.17 3°15.632 17.260951 4.292664 32.924941 1.005349
2004-07-12 10:39:29 51°25.17 3°15.573 17.261413 4.293086 32.927962 1.039059
2004-07-12 10:40:30 51°25.17 3°15.511 17.260614 4.29393 32.936383 1.005349
2004-07-12 10:41:30 51°25.169 3°15.451 17.264065 4.294563 32.940617 1.039059
2004-07-12 10:42:30 51°25.166 3°15.389 17.267053 4.295723 32.949371 1.039059
2004-07-12 10:43:30 51°25.161 3°15.328 17.26558 4.295723 32.948181 1.039059
2004-07-12 10:44:29 51°25.158 3°15.264 17.26255 4.296883 32.959909 1.005349
2004-07-12 10:45:30 51°25.156 3°15.199 17.257752 4.300574 32.993934 0.904221
2004-07-12 10:46:30 51°25.153 3°15.132 17.252827 4.305109 33.035799 0.870512
2004-07-12 10:47:30 51°25.147 3°15.065 17.258046 4.307956 33.061414 0.769383
2004-07-12 10:48:30 51°25.14 3°14.997 17.257752 4.310382 33.081623 0.735674
2004-07-12 10:49:30 51°25.134 3°14.928 17.255647 4.312386 33.09941 0.634546
2004-07-12 10:50:30 51°25.127 3°14.86 17.257457 4.313862 33.109685 0.600836
2004-07-12 10:51:29 51°25.119 3°14.795 17.258551 4.315233 33.122045 0.634546
2004-07-12 10:52:30 51°25.11 3°14.726 17.25872 4.31576 33.127765 0.567127
2004-07-12 10:53:30 51°25.103 3°14.658 17.254679 4.31576 33.127765 0.567127
2004-07-12 10:54:30 51°25.094 3°14.592 17.251101 4.313862 33.113272 0.600836
2004-07-12 10:55:29 51°25.088 3°14.53 17.251606 4.311753 33.098763 0.600836
2004-07-12 10:56:30 51°25.084 3°14.464 17.251017 4.310171 33.085788 0.634546
2004-07-12 10:57:30 51°25.079 3°14.397 17.249081 4.309538 33.079165 0.634546
2004-07-12 10:58:30 51°25.08 3°14.334 17.249165 4.308273 33.069502 0.634546
2004-07-12 10:59:30 51°25.086 3°14.273 17.24706 4.308167 33.067403 0.735674
2004-07-12 11:00:30 51°25.092 3°14.213 17.247271 4.305636 33.048079 0.701965
2004-07-12 11:01:30 51°25.098 3°14.175 17.248323 4.30648 33.053526 0.668255
2004-07-12 11:02:30 51°25.1 3°14.152 17.248407 4.306902 33.058338 0.735674
2004-07-12 11:03:29 51°25.101 3°14.141 17.251775 4.307745 33.063785 0.634546
2004-07-12 11:04:30 51°25.098 3°14.137 17.250807 4.308484 33.06952 0.600836
2004-07-12 11:05:30 51°25.093 3°14.139 17.253458 4.3088 33.071637 0.668255
2004-07-12 11:06:30 51°25.087 3°14.144 17.250554 4.308694 33.070732 0.668255
2004-07-12 11:07:30 51°25.081 3°14.15 17.254006 4.308694 33.068941 0.668255
2004-07-12 11:08:30 51°25.061 3°14.133 17.25228 4.308694 33.070732 0.668255
2004-07-12 11:09:30 51°24.917 3°14.139 17.25489 4.307956 33.0644 0.701965
2004-07-12 11:10:30 51°24.701 3°14.143 17.256657 4.303421 33.023714 0.93793
2004-07-12 11:11:30 51°24.482 3°14.186 17.271388 4.290239 32.899402 1.039059
2004-07-12 11:12:30 51°24.275 3°14.31 17.28683 4.286126 32.858826 1.072768
2004-07-12 11:13:30 51°24.108 3°14.53 17.321068 4.273892 32.733983 1.140187
2004-07-12 11:14:30 51°24.029 3°14.855 17.344235 4.259761 32.589603 1.679537
2004-07-12 11:15:30 51°23.99 3°15.2 17.344991 4.257968 32.561381 1.645828
2004-07-12 11:16:30 51°23.95 3°15.543 17.345496 4.257229 32.554489 1.578409
2004-07-12 11:17:30 51°23.901 3°15.887 17.342889 4.255753 32.543638 1.578409
2004-07-12 11:18:30 51°23.864 3°16.236 17.340703 4.255226 32.54265 1.612118
2004-07-12 11:19:30 51°23.838 3°16.586 17.340493 4.255648 32.544495 1.578409
2004-07-12 11:20:30 51°23.813 3°16.931 17.362518 4.255437 32.539764 1.679537
2004-07-12 11:21:30 51°23.783 3°17.275 17.371259 4.254276 32.515223 2.252597
2004-07-12 11:22:30 51°23.761 3°17.622 17.374747 4.254171 32.507303 2.286306
2004-07-12 11:23:30 51°23.739 3°17.971 17.368444 4.250902 32.475316 2.387435
2004-07-12 11:24:30 51°23.716 3°18.317 17.348859 4.241833 32.406694 2.454853
2004-07-12 11:25:30 51°23.696 3°18.648 17.333767 4.233924 32.357858 2.353725
2004-07-12 11:26:30 51°23.661 3°18.83 17.322414 4.231077 32.340548 2.286306
2004-07-12 11:27:30 51°23.664 3°18.901 17.327039 4.228968 32.327205 2.252597
2004-07-12 11:28:30 51°23.675 3°18.936 17.326829 4.229495 32.335782 2.185178
2004-07-12 11:29:30 51°23.696 3°19.003 17.330571 4.226859 32.313278 2.151469
2004-07-12 11:30:30 51°23.713 3°19.093 17.323339 4.22591 32.30285 2.218888
2004-07-12 11:31:30 51°23.72 3°19.186 17.320479 4.224645 32.293795 2.218888
2004-07-12 11:32:30 51°23.715 3°19.274 17.321531 4.223801 32.28834 2.218888
2004-07-12 11:33:29 51°23.709 3°19.351 17.324811 4.22127 32.264996 2.185178
2004-07-12 11:34:30 51°23.703 3°19.424 17.329352 4.219899 32.252717 2.185178
2004-07-12 11:35:30 51°23.694 3°19.492 17.33137 4.21895 32.243457 2.218888
2004-07-12 11:36:30 51°23.685 3°19.558 17.330319 4.218212 32.237159 2.185178
2004-07-12 11:37:30 51°23.675 3°19.622 17.332127 4.217474 32.227378 2.218888
2004-07-12 11:38:30 51°23.664 3°19.687 17.326451 4.214416 32.201291 2.218888
2004-07-12 11:39:30 51°23.655 3°19.752 17.326156 4.209987 32.165253 2.218888
2004-07-12 11:40:31 51°23.648 3°19.818 17.327922 4.205242 32.12652 2.252597
2004-07-12 11:41:30 51°23.641 3°19.882 17.321657 4.202289 32.104233 2.286306
2004-07-12 11:42:30 51°23.637 3°19.947 17.325105 4.202711 32.108408 2.252597
2004-07-12 11:43:30 51°23.634 3°20.012 17.324811 4.2025 32.104297 2.286306
2004-07-12 11:44:30 51°23.634 3°20.076 17.326366 4.200391 32.08458 2.353725
2004-07-12 11:45:30 51°23.638 3°20.141 17.327249 4.199337 32.076167 2.454853
2004-07-12 11:46:30 51°23.641 3°20.205 17.326156 4.199231 32.075846 2.387435
2004-07-12 11:47:36 51°23.643 3°20.275 17.328847 4.20018 32.081049 2.387435
2004-07-12 11:48:36 51°23.645 3°20.339 17.330025 4.198388 32.065766 2.454853
2004-07-12 11:49:35 51°23.645 3°20.401 17.330866 4.196595 32.049907 2.454853
2004-07-12 11:50:35 51°23.644 3°20.464 17.329015 4.195013 32.036424 2.454853
2004-07-12 11:51:36 51°23.645 3°20.528 17.328931 4.194064 32.027758 2.522272
2004-07-12 11:52:35 51°23.644 3°20.591 17.330571 4.193431 32.021789 2.555982
2004-07-12 11:53:36 51°23.641 3°20.656 17.331664 4.192693 32.017228 2.454853
2004-07-12 11:54:36 51°23.638 3°20.721 17.329268 4.192693 32.016651 2.387435
2004-07-12 11:55:36 51°23.636 3°20.787 17.329058 4.192482 32.013125 2.454853
2004-07-12 11:56:36 51°23.635 3°20.855 17.332884 4.190795 32.001627 2.454853
2004-07-12 11:57:34 51°23.635 3°20.919 17.334818 4.189635 31.988286 2.488563
2004-07-12 11:58:36 51°23.633 3°20.99 17.333767 4.188897 31.980844 2.522272
2004-07-12 11:59:36 51°23.631 3°21.061 17.333094 4.188792 31.97937 2.522272
2004-07-12 12:00:36 51°23.628 3°21.134 17.329646 4.190268 31.995405 2.454853
2004-07-12 12:01:36 51°23.626 3°21.206 17.33301 4.191428 32.004714 2.387435
2004-07-12 12:02:36 51°23.625 3°21.276 17.33692 4.190901 31.999645 2.353725
2004-07-12 12:03:35 51°23.62 3°21.343 17.346841 4.18953 31.981629 2.488563
2004-07-12 12:04:35 51°23.616 3°21.409 17.343856 4.188792 31.971312 2.488563
2004-07-12 12:05:36 51°23.604 3°21.472 17.350204 4.186788 31.952521 2.454853
2004-07-12 12:06:36 51°23.569 3°21.561 17.35012 4.184679 31.931686 2.488563
2004-07-12 12:07:36 51°23.486 3°21.622 17.349909 4.184046 31.924575 2.488563
2004-07-12 12:08:36 51°23.422 3°21.603 17.347429 4.183835 31.923928 2.555982
2004-07-12 12:09:35 51°23.377 3°21.563 17.3431 4.183941 31.928848 2.488563
2004-07-12 12:10:36 51°23.342 3°21.476 17.340409 4.184363 31.931865 2.454853
2004-07-12 12:11:36 51°23.322 3°21.369 17.333262 4.184996 31.945877 2.454853
2004-07-12 12:12:35 51°23.306 3°21.277 17.323087 4.184996 31.951054 2.488563
2004-07-12 12:13:36 51°23.298 3°21.189 17.323297 4.18489 31.954183 2.555982
2004-07-12 12:14:34 51°23.299 3°21.11 17.321825 4.184785 31.955011 2.589691
2004-07-12 12:15:36 51°23.301 3°21.025 17.321363 4.184785 31.956162 2.555982
2004-07-12 12:16:35 51°23.305 3°20.945 17.326072 4.18489 31.955909 2.522272
2004-07-12 12:17:36 51°23.316 3°20.865 17.331076 4.185312 31.954325 2.488563
2004-07-12 12:18:36 51°23.328 3°20.791 17.331664 4.185839 31.957091 2.454853
2004-07-12 12:19:36 51°23.342 3°20.715 17.333935 4.186366 31.960432 2.488563
2004-07-12 12:20:36 51°23.353 3°20.63 17.331748 4.186472 31.961331 2.488563
2004-07-12 12:21:36 51°23.366 3°20.543 17.331833 4.186999 31.965823 2.522272
2004-07-12 12:22:34 51°23.379 3°20.458 17.332043 4.187421 31.969993 2.522272
2004-07-12 12:23:36 51°23.392 3°20.367 17.329226 4.187843 31.973587 2.522272
2004-07-12 12:24:36 51°23.402 3°20.279 17.328595 4.18837 31.979231 2.555982
2004-07-12 12:25:36 51°23.41 3°20.196 17.329436 4.188792 31.983977 2.589691
2004-07-12 12:26:36 51°23.416 3°20.113 17.331454 4.188792 31.982825 2.555982
2004-07-12 12:27:36 51°23.423 3°20.036 17.328679 4.188897 31.985451 2.522272
2004-07-12 12:28:36 51°23.426 3°19.965 17.327922 4.189214 31.988723 2.555982
2004-07-12 12:29:36 51°23.43 3°19.897 17.330487 4.189003 31.985774 2.522272
2004-07-12 12:30:36 51°23.438 3°19.825 17.326282 4.189952 31.994438 2.522272
2004-07-12 12:31:36 51°23.45 3°19.751 17.326745 4.18953 31.991419 2.522272
2004-07-12 12:32:36 51°23.461 3°19.677 17.325273 4.189635 31.992894 2.555982
2004-07-12 12:33:36 51°23.471 3°19.602 17.324348 4.189741 31.994369 2.488563
2004-07-12 12:34:35 51°23.483 3°19.526 17.324348 4.189741 31.993793 2.555982
2004-07-12 12:35:36 51°23.496 3°19.448 17.324642 4.190268 31.998862 2.555982
2004-07-12 12:36:36 51°23.508 3°19.371 17.327712 4.190795 32.00278 2.589691
2004-07-12 12:37:35 51°23.52 3°19.292 17.326745 4.191323 32.004968 2.589691
2004-07-12 12:38:36 51°23.531 3°19.209 17.328301 4.192272 32.013056 2.522272
2004-07-12 12:39:36 51°23.541 3°19.128 17.33095 4.192799 32.016974 2.522272
2004-07-12 12:40:36 51°23.554 3°19.047 17.330992 4.193431 32.019483 2.488563
2004-07-12 12:41:36 51°23.567 3°18.965 17.33301 4.194064 32.024875 2.454853
2004-07-12 12:42:36 51°23.58 3°18.883 17.335028 4.194908 32.031488 2.421144
2004-07-12 12:43:36 51°23.598 3°18.807 17.334902 4.19554 32.036304 2.353725
2004-07-12 12:44:36 51°23.62 3°18.734 17.338307 4.195013 32.032387 2.421144
2004-07-12 12:45:36 51°23.643 3°18.661 17.335953 4.196173 32.039965 2.387435
2004-07-12 12:46:36 51°23.677 3°18.586 17.337424 4.195962 32.038168 2.387435
2004-07-12 12:47:36 51°23.741 3°18.596 17.335701 4.197122 32.048054 2.421144
2004-07-12 12:48:36 51°23.736 3°18.698 17.337298 4.197755 32.052869 2.488563
2004-07-12 12:49:36 51°23.689 3°18.732 17.335616 4.198598 32.060059 2.421144
2004-07-12 12:50:36 51°23.648 3°18.719 17.340956 4.198387 32.058261 2.387435
2004-07-12 12:51:36 51°23.614 3°18.686 17.339442 4.198809 32.060125 2.353725
2004-07-12 12:52:36 51°23.59 3°18.644 17.338938 4.19786 32.050883 2.387435
2004-07-12 12:53:36 51°23.572 3°18.599 17.340703 4.197016 32.041387 2.353725
2004-07-12 12:54:36 51°23.556 3°18.556 17.338307 4.196911 32.042219 2.320016
2004-07-12 12:55:36 51°23.541 3°18.508 17.338307 4.196384 32.038302 2.353725
2004-07-12 12:56:36 51°23.529 3°18.307 17.336079 4.196278 32.035097 2.421144
2004-07-12 12:57:36 51°23.499 3°17.942 17.33692 4.195751 32.034641 2.454853
2004-07-12 12:58:36 51°23.438 3°17.564 17.336541 4.196384 32.04234 2.522272
2004-07-12 12:59:35 51°23.379 3°17.19 17.33364 4.198493 32.060314 2.522272
2004-07-12 13:00:36 51°23.32 3°16.804 17.338686 4.200707 32.07919 2.454853
2004-07-12 13:01:36 51°23.267 3°16.421 17.335869 4.203554 32.102882 2.488563
2004-07-12 13:02:36 51°23.23 3°16.034 17.343478 4.207561 32.134731 2.555982
2004-07-12 13:03:36 51°23.19 3°15.648 17.339989 4.212939 32.180586 2.589691
2004-07-12 13:04:36 51°23.13 3°15.267 17.33116 4.216946 32.214759 2.758238
2004-07-12 13:05:36 51°23.074 3°14.882 17.332421 4.221797 32.261361 2.791947
2004-07-12 13:06:36 51°23.016 3°14.499 17.329604 4.219688 32.244529 3.331298
2004-07-12 13:07:36 51°22.957 3°14.118 17.332421 4.22475 32.288298 2.690819
2004-07-12 13:08:36 51°22.898 3°13.741 17.327796 4.231288 32.34526 2.387435
2004-07-12 13:09:42 51°22.833 3°13.328 17.330025 4.235084 32.375334 2.050341
2004-07-12 13:10:42 51°22.775 3°12.951 17.316653 4.234557 32.374332 1.982922
2004-07-12 13:11:42 51°22.715 3°12.57 17.321909 4.23287 32.368673 1.814375
2004-07-12 13:12:46 51°22.661 3°12.161 17.318377 4.229074 32.332182 2.050341
2004-07-12 13:13:50 51°22.608 3°11.749 17.306937 4.2199 32.262596 1.881794
2004-07-12 13:14:50 51°22.553 3°11.363 17.307022 4.211464 32.19582 1.982922
2004-07-12 13:15:50 51°22.493 3°10.977 17.307022 4.208089 32.166444 2.117759
2004-07-12 13:16:50 51°22.43 3°10.593 17.286367 4.206718 32.158223 2.488563
2004-07-12 13:17:50 51°22.372 3°10.214 17.265917 4.209777 32.19941 2.218888
2004-07-12 13:18:50 51°22.312 3°9.837 17.256615 4.203766 32.165494 2.421144
2004-07-12 13:19:50 51°22.25 3°9.462 17.253711 4.202712 32.16055 2.65711
2004-07-12 13:20:50 51°22.187 3°9.086 17.23043 4.215577 32.274549 2.320016
2004-07-12 13:21:50 51°22.126 3°8.712 17.22563 4.214417 32.283282 2.724529
2004-07-12 13:22:50 51°22.067 3°8.338 17.219144 4.215261 32.291081 2.65711
2004-07-12 13:23:50 51°21.999 3°7.968 17.234598 4.214417 32.283282 2.758238
2004-07-12 13:24:50 51°21.922 3°7.602 17.231904 4.214417 32.275704 2.65711
2004-07-12 13:25:50 51°21.837 3°7.241 17.235693 4.233926 32.443155 2.454853
2004-07-12 13:26:50 51°21.742 3°6.889 17.239735 4.235929 32.455025 2.421144
2004-07-12 13:27:50 51°21.652 3°6.555 17.248323 4.235824 32.450021 2.353725
2004-07-12 13:28:48 51°21.635 3°6.374 17.247734 4.233504 32.427248 2.353725
2004-07-12 13:29:50 51°21.629 3°6.319 17.245797 4.230762 32.404967 2.320016
2004-07-12 13:30:48 51°21.617 3°6.259 17.251817 4.230551 32.404334 2.286306
2004-07-12 13:31:50 51°21.594 3°6.166 17.250512 4.23034 32.397266 2.286306
2004-07-12 13:32:50 51°21.569 3°6.065 17.248533 4.229813 32.393927 2.320016
2004-07-12 13:33:50 51°21.548 3°5.96 17.249838 4.229075 32.388783 2.252597
2004-07-12 13:34:50 51°21.531 3°5.866 17.24685 4.228231 32.382153 2.286306
2004-07-12 13:35:50 51°21.516 3°5.782 17.249838 4.227809 32.379715 2.353725
2004-07-12 13:36:50 51°21.5 3°5.702 17.249502 4.22802 32.378597 2.353725
2004-07-12 13:37:49 51°21.483 3°5.627 17.250512 4.227915 32.377695 2.320016
2004-07-12 13:38:50 51°21.466 3°5.553 17.248323 4.227387 32.372602 2.387435
2004-07-12 13:39:50 51°21.451 3°5.48 17.251143 4.227493 32.374672 2.320016
2004-07-12 13:40:50 51°21.435 3°5.408 17.246765 4.227704 32.374138 2.320016
2004-07-12 13:41:50 51°21.42 3°5.334 17.251227 4.226966 32.370164 2.353725
2004-07-12 13:42:49 51°21.405 3°5.262 17.249586 4.227176 32.371383 2.353725
2004-07-12 13:43:50 51°21.388 3°5.187 17.253248 4.22686 32.369846 2.353725
2004-07-12 13:44:50 51°21.372 3°5.109 17.24946 4.22686 32.370431 2.387435
2004-07-12 13:45:50 51°21.356 3°5.028 17.248618 4.22686 32.369262 2.387435
2004-07-12 13:46:50 51°21.347 3°4.947 17.252069 4.226544 32.367141 2.353725
2004-07-12 13:47:50 51°21.342 3°4.868 17.257499 4.226333 32.363001 2.421144
2004-07-12 13:48:50 51°21.337 3°4.79 17.250933 4.226966 32.368411 2.387435
2004-07-12 13:49:50 51°21.331 3°4.712 17.25148 4.226227 32.361515 2.421144
2004-07-12 13:50:50 51°21.324 3°4.633 17.251606 4.226649 32.368627 2.421144
2004-07-12 13:51:50 51°21.314 3°4.555 17.250428 4.226122 32.362366 2.454853
2004-07-12 13:52:50 51°21.303 3°4.479 17.252364 4.226333 32.365338 2.421144
2004-07-12 13:53:50 51°21.291 3°4.404 17.250638 4.226122 32.361782 2.421144
2004-07-12 13:54:50 51°21.278 3°4.329 17.251396 4.226122 32.361782 2.421144
2004-07-12 13:55:50 51°21.266 3°4.253 17.254805 4.225806 32.359077 2.421144
2004-07-12 13:56:50 51°21.252 3°4.176 17.253122 4.225595 32.357858 2.421144
2004-07-12 13:57:50 51°21.237 3°4.101 17.255268 4.226544 32.363052 2.421144
2004-07-12 13:58:50 51°21.221 3°4.027 17.25872 4.226016 32.359128 2.454853
2004-07-12 13:59:50 51°21.203 3°3.954 17.250344 4.225595 32.35669 2.454853
2004-07-12 14:00:50 51°21.184 3°3.88 17.248702 4.225806 32.359661 2.454853
2004-07-12 14:01:50 51°21.162 3°3.803 17.250259 4.225384 32.356054 2.454853
2004-07-12 14:02:50 51°21.137 3°3.729 17.248996 4.225806 32.357909 2.421144
2004-07-12 14:03:50 51°21.114 3°3.654 17.245545 4.225067 32.353933 2.488563
2004-07-12 14:04:49 51°21.094 3°3.579 17.24887 4.224646 32.354415 2.522272
2004-07-12 14:05:50 51°21.077 3°3.501 17.247734 4.224962 32.354784 2.488563
2004-07-12 14:06:50 51°21.063 3°3.402 17.242513 4.224751 32.354733 2.522272
2004-07-12 14:07:50 51°21.066 3°3.239 17.246218 4.22454 32.354681 2.555982
2004-07-12 14:08:50 51°21.099 3°3.066 17.24264 4.22454 32.353513 2.555982
2004-07-12 14:09:50 51°21.139 3°2.955 17.240956 4.22454 32.356434 2.522272
2004-07-12 14:10:50 51°21.167 3°2.894 17.238556 4.224751 32.357653 2.454853
2004-07-12 14:11:50 51°21.187 3°2.856 17.238177 4.224646 32.35792 2.421144
2004-07-12 14:12:50 51°21.212 3°2.861 17.239524 4.224962 32.359457 2.353725
2004-07-12 14:13:56 51°21.188 3°2.913 17.243776 4.225806 32.369009 2.387435
2004-07-12 14:14:56 51°21.119 3°2.881 17.243313 4.225806 32.36375 2.320016
2004-07-12 14:15:56 51°21.062 3°2.811 17.243861 4.225806 32.366672 2.320016
2004-07-12 14:16:56 51°21.012 3°2.73 17.240703 4.225595 32.364868 2.387435
2004-07-12 14:17:56 51°20.972 3°2.643 17.240198 4.225173 32.361261 2.454853
2004-07-12 14:18:56 51°20.939 3°2.558 17.240703 4.225173 32.360676 2.421144
2004-07-12 14:19:56 51°20.908 3°2.478 17.244913 4.225173 32.360676 2.421144
2004-07-12 14:20:56 51°20.876 3°2.4 17.241756 4.225173 32.360676 2.454853
2004-07-12 14:21:56 51°20.844 3°2.324 17.239356 4.225068 32.360359 2.454853
2004-07-12 14:22:56 51°20.811 3°2.249 17.243692 4.224751 32.356485 2.454853
2004-07-12 14:23:56 51°20.78 3°2.178 17.242892 4.224646 32.356752 2.488563
2004-07-12 14:24:56 51°20.749 3°2.109 17.241461 4.224329 32.355799 2.454853
2004-07-12 14:25:56 51°20.72 3°2.042 17.239987 4.224435 32.356116 2.488563
2004-07-12 14:26:58 51°20.689 3°1.974 17.236535 4.223908 32.35336 2.522272
2004-07-12 14:27:56 51°20.661 3°1.911 17.238767 4.224119 32.354579 2.555982
2004-07-12 14:28:58 51°20.634 3°1.845 17.237967 4.224119 32.354579 2.555982
2004-07-12 14:29:56 51°20.61 3°1.786 17.236746 4.224119 32.354579 2.6234
2004-07-12 14:30:58 51°20.587 3°1.722 17.238177 4.224013 32.352509 2.589691
2004-07-12 14:31:56 51°20.566 3°1.658 17.240998 4.223908 32.352191 2.6234
2004-07-12 14:32:58 51°20.544 3°1.59 17.239903 4.223908 32.349855 2.589691
2004-07-12 14:34:04 51°20.522 3°1.516 17.241166 4.224118 32.352243 2.6234
2004-07-12 14:35:04 51°20.501 3°1.448 17.244366 4.223591 32.348318 2.589691
2004-07-12 14:36:04 51°20.482 3°1.378 17.237967 4.223697 32.350388 2.6234
2004-07-12 14:37:04 51°20.462 3°1.306 17.242219 4.223697 32.349219 2.6234
2004-07-12 14:38:04 51°20.442 3°1.235 17.243019 4.223908 32.351607 2.555982
2004-07-12 14:39:04 51°20.421 3°1.165 17.240493 4.223802 32.350121 2.6234
2004-07-12 14:40:04 51°20.401 3°1.097 17.247439 4.224013 32.350757 2.589691
2004-07-12 14:41:04 51°20.379 3°1.033 17.242303 4.224118 32.351658 2.589691
2004-07-12 14:42:04 51°20.357 3°0.973 17.242892 4.224118 32.351074 2.6234
2004-07-12 14:43:04 51°20.336 3°0.914 17.242429 4.223908 32.349855 2.6234
2004-07-12 14:44:04 51°20.315 3°0.858 17.246765 4.223908 32.349271 2.6234
2004-07-12 14:45:04 51°20.294 3°0.801 17.246765 4.223697 32.347467 2.555982
2004-07-12 14:46:04 51°20.274 3°0.745 17.240408 4.224329 32.354046 2.6234
2004-07-12 14:47:04 51°20.256 3°0.672 17.242261 4.223802 32.348953 2.6234
2004-07-12 14:48:04 51°20.243 3°0.582 17.239903 4.223908 32.351607 2.6234
2004-07-12 14:49:04 51°20.224 3°0.482 17.237882 4.224224 32.354897 2.65711
2004-07-12 14:50:04 51°20.216 3°0.347 17.237798 4.223697 32.350388 2.589691
2004-07-12 14:51:04 51°20.256 3°0.213 17.242429 4.223697 32.348635 2.555982
2004-07-12 14:52:04 51°20.331 3°0.165 17.245418 4.223275 32.344444 2.421144
2004-07-12 14:53:04 51°20.392 3°0.226 17.241756 4.224751 32.355317 2.252597
2004-07-12 14:54:04 51°20.405 3°0.317 17.243103 4.225595 32.363115 2.185178
2004-07-12 14:55:04 51°20.388 3°0.373 17.245545 4.226017 32.364385 2.185178
2004-07-12 14:56:04 51°20.365 3°0.408 17.243861 4.225911 32.364068 2.151469
2004-07-12 14:57:04 51°20.338 3°0.429 17.241671 4.225595 32.361947 2.151469
2004-07-12 14:58:04 51°20.308 3°0.441 17.243608 4.225278 32.357489 2.218888
2004-07-12 14:59:04 51°20.274 3°0.441 17.242934 4.224646 32.354999 2.252597
2004-07-12 15:00:10 51°20.236 3°0.431 17.244829 4.224435 32.353196 2.286306
2004-07-12 15:01:10 51°20.201 3°0.413 17.243313 4.224435 32.352027 2.286306
2004-07-12 15:02:09 51°20.167 3°0.388 17.243861 4.224118 32.348154 2.387435
2004-07-12 15:03:10 51°20.135 3°0.358 17.243776 4.224013 32.347837 2.421144
2004-07-12 15:04:10 51°20.097 3°0.318 17.238935 4.223908 32.348103 2.488563
2004-07-12 15:05:10 51°20.03 3°0.155 17.250554 4.224329 32.345287 3.23017
2004-07-12 15:06:10 51°19.942 2°59.824 17.248491 4.222853 32.330915 2.926785
2004-07-12 15:07:10 51°19.848 2°59.471 17.254511 4.224329 32.342368 2.589691
2004-07-12 15:08:10 51°19.739 2°59.123 17.252196 4.226122 32.355942 2.555982
2004-07-12 15:09:08 51°19.641 2°58.779 17.258173 4.227598 32.367979 2.555982
2004-07-12 15:10:10 51°19.533 2°58.414 17.264149 4.230762 32.390935 2.522272
2004-07-12 15:11:10 51°19.434 2°58.054 17.261919 4.231078 32.389548 2.522272
2004-07-12 15:12:10 51°19.339 2°57.691 17.268694 4.23498 32.418809 2.454853
2004-07-12 15:13:10 51°19.246 2°57.327 17.277868 4.233398 32.401197 2.387435
2004-07-12 15:14:10 51°19.132 2°56.976 17.285273 4.231078 32.374948 2.421144
2004-07-12 15:15:10 51°18.997 2°56.644 17.287503 4.235928 32.413476 2.252597
2004-07-12 15:16:10 51°18.852 2°56.325 17.292047 4.243521 32.477778 2.185178
2004-07-12 15:17:10 51°18.691 2°56.026 17.298188 4.250059 32.52077 2.421144
2004-07-12 15:18:07 51°18.54 2°55.742 17.307863 4.275579 32.737206 2.421144
2004-07-12 15:19:10 51°18.371 2°55.436 17.306265 4.296038 32.908132 2.589691
2004-07-12 15:20:10 51°18.215 2°55.135 17.312069 4.300889 32.947285 2.522272
2004-07-12 15:21:10 51°18.058 2°54.838 17.283843 4.317658 33.106992 2.117759
2004-07-12 15:22:10 51°17.898 2°54.547 17.263055 4.328415 33.209988 2.117759
2004-07-12 15:23:10 51°17.743 2°54.249 17.229883 4.355942 33.461303 1.746956
2004-07-12 15:24:10 51°17.576 2°53.972 17.176554 4.392962 33.824125 1.578409
2004-07-12 15:25:10 51°17.414 2°53.691 17.175501 4.402982 33.931319 1.308734
2004-07-12 15:26:10 51°17.246 2°53.42 17.149285 4.424921 34.132928 1.173896
2004-07-12 15:27:09 51°17.048 2°53.24 17.147725 4.436312 34.241837 1.072768
2004-07-12 15:28:10 51°16.819 2°53.241 17.163321 4.441586 34.288649 0.904221
2004-07-12 15:29:09 51°16.593 2°53.327 17.185235 4.437472 34.234495 0.904221
2004-07-12 15:30:10 51°16.362 2°53.414 17.298399 4.422706 34.083564 0.701965
2004-07-12 15:31:10 51°16.139 2°53.509 17.26861 4.392645 33.767665 1.241315
2004-07-12 15:32:10 51°15.919 2°53.613 17.287671 4.394543 33.762663 1.443571
2004-07-12 15:33:10 51°15.702 2°53.727 17.261161 4.379461 33.645205 1.241315
2004-07-12 15:34:10 51°15.483 2°53.845 17.246218 4.374926 33.632334 1.51099
2004-07-12 15:35:10 51°15.272 2°53.982 17.259898 4.375032 33.627167 1.578409
2004-07-12 15:36:10 51°15.068 2°54.135 17.25611 4.374504 33.625063 1.51099
2004-07-12 15:37:10 51°14.88 2°54.328 17.242934 4.382731 33.694584 0.870512
2004-07-12 15:38:10 51°14.702 2°54.551 17.242892 4.388848 33.755122 0.735674
2004-07-12 15:39:10 51°14.528 2°54.761 17.254132 4.390536 33.770252 0.634546
2004-07-12 15:40:10 51°14.386 2°55.013 17.204572 4.369864 33.592448 1.275024